createdAt,value
2019-01-30T00:01:39.682Z,1.32
2019-01-30T00:04:08.692Z,1.35
2019-01-30T00:06:37.744Z,1.31
2019-01-30T00:09:09.705Z,1.33
2019-01-30T00:11:39.162Z,1.32
2019-01-30T00:14:08.215Z,1.29
2019-01-30T00:16:37.826Z,1.26
2019-01-30T00:19:06.883Z,1.26
2019-01-30T00:21:35.940Z,1.30
2019-01-30T00:24:05.833Z,1.32
2019-01-30T00:26:34.842Z,1.30
2019-01-30T00:29:04.539Z,1.29
2019-01-30T00:31:33.570Z,1.31
2019-01-30T00:34:02.978Z,1.29
2019-01-30T00:36:32.038Z,1.26
2019-01-30T00:39:01.062Z,1.29
2019-01-30T00:41:30.156Z,1.23
2019-01-30T00:43:59.198Z,1.22
2019-01-30T00:46:28.528Z,1.24
2019-01-30T00:48:57.537Z,1.23
2019-01-30T00:51:26.562Z,1.29
2019-01-30T00:53:55.604Z,1.27
2019-01-30T00:56:24.706Z,1.28
2019-01-30T00:58:53.742Z,1.28
2019-01-30T01:01:22.750Z,1.30
2019-01-30T01:03:52.446Z,1.29
2019-01-30T01:06:21.509Z,1.30
2019-01-30T01:08:50.640Z,1.38
2019-01-30T01:11:20.322Z,1.36
2019-01-30T01:13:49.342Z,1.37
2019-01-30T01:16:18.322Z,1.41
2019-01-30T01:18:47.370Z,1.38
2019-01-30T01:21:16.707Z,1.36
2019-01-30T01:23:46.409Z,1.35
2019-01-30T01:26:15.448Z,1.32
2019-01-30T01:28:44.484Z,1.36
2019-01-30T01:31:13.563Z,1.32
2019-01-30T01:33:43.292Z,1.33
2019-01-30T01:36:12.327Z,1.37
2019-01-30T01:38:41.337Z,1.28
2019-01-30T01:41:10.722Z,1.40
2019-01-30T01:43:40.062Z,1.35
2019-01-30T01:46:09.501Z,1.34
2019-01-30T01:48:38.566Z,1.36
2019-01-30T01:51:08.306Z,1.49
2019-01-30T01:53:37.815Z,1.50
2019-01-30T01:56:07.128Z,1.45
2019-01-30T01:58:36.186Z,1.55
2019-01-30T02:01:05.409Z,1.52
2019-01-30T02:03:34.434Z,1.43
2019-01-30T02:06:03.930Z,1.39
2019-01-30T02:08:33.058Z,1.38
2019-01-30T02:11:02.514Z,1.36
2019-01-30T02:13:31.666Z,1.37
2019-01-30T02:16:00.699Z,1.32
2019-01-30T02:18:29.711Z,1.32
2019-01-30T02:20:59.090Z,1.38
2019-01-30T02:23:28.237Z,1.42
2019-01-30T02:25:57.229Z,1.41
2019-01-30T02:28:26.258Z,1.42
2019-01-30T02:30:55.728Z,1.36
2019-01-30T02:33:25.108Z,1.38
2019-01-30T02:35:54.544Z,1.34
2019-01-30T02:38:24.007Z,1.34
2019-01-30T02:40:53.115Z,1.32
2019-01-30T02:43:22.155Z,1.31
2019-01-30T02:45:51.529Z,1.30
2019-01-30T02:48:20.598Z,1.27
2019-01-30T02:50:50.102Z,1.26
2019-01-30T02:53:19.211Z,1.25
2019-01-30T02:55:48.230Z,1.27
2019-01-30T02:58:17.302Z,1.32
2019-01-30T03:00:58.473Z,1.30
2019-01-30T03:03:18.096Z,1.30
2019-01-30T03:05:47.124Z,1.25
2019-01-30T03:08:16.165Z,1.26
2019-01-30T03:10:45.654Z,1.25
2019-01-30T03:13:15.163Z,1.28
2019-01-30T03:15:44.221Z,1.29
2019-01-30T03:18:13.314Z,1.28
2019-01-30T03:20:42.432Z,1.28
2019-01-30T03:23:12.123Z,1.24
2019-01-30T03:25:41.172Z,1.26
2019-01-30T03:28:10.243Z,1.27
2019-01-30T03:30:39.295Z,1.22
2019-01-30T03:33:08.656Z,1.20
2019-01-30T03:35:37.696Z,1.22
2019-01-30T03:38:07.036Z,1.19
2019-01-30T03:40:36.065Z,1.21
2019-01-30T03:43:05.921Z,1.19
2019-01-30T03:45:35.231Z,1.20
2019-01-30T03:48:04.277Z,1.25
2019-01-30T03:50:33.385Z,1.26
2019-01-30T03:53:02.398Z,1.21
2019-01-30T03:55:31.753Z,1.18
2019-01-30T03:58:01.602Z,1.21
2019-01-30T04:00:30.621Z,1.24
2019-01-30T04:02:59.672Z,1.21
2019-01-30T04:05:29.036Z,1.21
2019-01-30T04:07:58.828Z,1.21
2019-01-30T04:10:28.204Z,1.18
2019-01-30T04:12:57.247Z,1.16
2019-01-30T04:15:26.633Z,1.21
2019-01-30T04:17:55.716Z,1.19
2019-01-30T04:20:25.270Z,1.20
2019-01-30T04:22:54.281Z,1.18
2019-01-30T04:25:23.436Z,1.18
2019-01-30T04:27:52.647Z,1.22
2019-01-30T04:30:23.202Z,1.20
2019-01-30T04:32:52.367Z,1.17
2019-01-30T04:35:21.387Z,1.14
2019-01-30T04:37:50.743Z,1.13
2019-01-30T04:40:21.165Z,1.19
2019-01-30T04:42:50.291Z,1.13
2019-01-30T04:45:21.847Z,1.11
2019-01-30T04:47:50.994Z,1.13
2019-01-30T04:50:20.418Z,1.07
2019-01-30T04:52:49.603Z,1.08
2019-01-30T04:55:18.922Z,1.09
2019-01-30T04:57:47.934Z,1.09
2019-01-30T05:00:22.241Z,1.09
2019-01-30T05:02:51.271Z,1.08
2019-01-30T05:05:20.303Z,1.08
2019-01-30T05:07:49.370Z,1.08
2019-01-30T05:10:18.476Z,1.09
2019-01-30T05:12:47.526Z,1.06
2019-01-30T05:15:18.018Z,1.04
2019-01-30T05:17:47.333Z,1.10
2019-01-30T05:20:17.985Z,1.09
2019-01-30T05:22:47.412Z,1.08
2019-01-30T05:25:16.543Z,1.11
2019-01-30T05:27:45.562Z,1.13
2019-01-30T05:30:20.588Z,1.08
2019-01-30T05:32:49.645Z,1.07
2019-01-30T05:35:18.657Z,1.04
2019-01-30T05:37:47.676Z,1.06
2019-01-30T05:40:17.495Z,1.02
2019-01-30T05:42:46.519Z,1.04
2019-01-30T05:45:16.200Z,1.02
2019-01-30T05:47:45.326Z,1.05
2019-01-30T05:50:15.410Z,1.04
2019-01-30T05:52:44.436Z,1.08
2019-01-30T05:55:14.454Z,1.04
2019-01-30T05:57:43.530Z,1.04
2019-01-30T06:00:26.658Z,1.07
2019-01-30T06:02:55.703Z,1.05
2019-01-30T06:05:24.841Z,1.10
2019-01-30T06:07:53.869Z,1.15
2019-01-30T06:10:23.235Z,1.11
2019-01-30T06:12:52.296Z,1.05
2019-01-30T06:15:21.843Z,1.02
2019-01-30T06:17:50.974Z,1.03
2019-01-30T06:20:22.462Z,0.98
2019-01-30T06:22:51.512Z,1.06
2019-01-30T06:25:21.040Z,1.04
2019-01-30T06:27:50.205Z,1.00
2019-01-30T06:30:20.071Z,1.01
2019-01-30T06:32:49.191Z,1.01
2019-01-30T06:35:18.267Z,0.98
2019-01-30T06:37:47.332Z,1.04
2019-01-30T06:40:21.681Z,1.06
2019-01-30T06:42:51.002Z,1.09
2019-01-30T06:45:20.049Z,1.04
2019-01-30T06:47:49.071Z,1.06
2019-01-30T06:50:18.383Z,1.08
2019-01-30T06:52:47.508Z,1.05
2019-01-30T06:55:16.536Z,1.07
2019-01-30T06:57:45.529Z,1.06
2019-01-30T07:00:19.729Z,1.03
2019-01-30T07:02:48.908Z,1.04
2019-01-30T07:05:17.972Z,1.03
2019-01-30T07:07:46.980Z,1.01
2019-01-30T07:10:19.323Z,1.01
2019-01-30T07:12:48.420Z,0.99
2019-01-30T07:15:17.703Z,1.02
2019-01-30T07:17:46.865Z,1.03
2019-01-30T07:20:16.641Z,1.05
2019-01-30T07:22:45.911Z,1.02
2019-01-30T07:25:16.264Z,1.03
2019-01-30T07:27:45.595Z,1.06
2019-01-30T07:30:27.387Z,1.07
2019-01-30T07:32:56.405Z,1.08
2019-01-30T07:35:25.483Z,1.08
2019-01-30T07:37:54.688Z,1.07
2019-01-30T07:40:23.743Z,1.07
2019-01-30T07:42:52.829Z,1.14
2019-01-30T07:45:23.587Z,1.12
2019-01-30T07:47:52.614Z,1.17
2019-01-30T07:50:22.247Z,1.18
2019-01-30T07:52:51.421Z,1.21
2019-01-30T07:55:20.794Z,1.30
2019-01-30T07:57:49.907Z,1.35
2019-01-30T08:00:30.359Z,1.39
2019-01-30T08:02:59.375Z,1.40
2019-01-30T08:05:28.844Z,1.49
2019-01-30T08:07:57.885Z,1.51
2019-01-30T08:10:26.910Z,1.55
2019-01-30T08:12:55.961Z,1.61
2019-01-30T08:15:25.953Z,1.65
2019-01-30T08:17:55.271Z,1.71
2019-01-30T08:20:24.308Z,1.69
2019-01-30T08:22:53.429Z,1.73
2019-01-30T08:25:23.887Z,1.76
2019-01-30T08:27:53.671Z,1.82
2019-01-30T08:30:25.568Z,1.92
2019-01-30T08:33:04.300Z,1.92
2019-01-30T08:35:27.924Z,2.07
2019-01-30T08:37:57.752Z,2.11
2019-01-30T08:40:26.806Z,2.15
2019-01-30T08:42:55.860Z,2.24
2019-01-30T08:45:27.163Z,2.37
2019-01-30T08:47:56.200Z,2.49
2019-01-30T08:50:26.003Z,2.49
2019-01-30T08:52:55.056Z,2.65
2019-01-30T08:55:24.135Z,2.43
2019-01-30T08:57:53.258Z,2.66
2019-01-30T09:00:23.611Z,2.60
2019-01-30T09:02:53.065Z,2.71
2019-01-30T09:05:23.050Z,2.70
2019-01-30T09:07:52.085Z,2.76
2019-01-30T09:10:22.495Z,2.67
2019-01-30T09:12:51.522Z,2.60
2019-01-30T09:15:21.890Z,2.61
2019-01-30T09:17:51.668Z,2.51
2019-01-30T09:20:22.419Z,2.72
2019-01-30T09:22:51.817Z,2.82
2019-01-30T09:25:22.695Z,2.70
2019-01-30T09:27:52.224Z,2.79
2019-01-30T09:30:24.147Z,2.86
2019-01-30T09:32:55.297Z,2.89
2019-01-30T09:35:24.305Z,2.97
2019-01-30T09:37:53.362Z,3.08
2019-01-30T09:40:22.620Z,2.99
2019-01-30T09:42:51.630Z,3.11
2019-01-30T09:45:22.287Z,3.17
2019-01-30T09:47:51.474Z,3.17
2019-01-30T09:50:20.976Z,3.16
2019-01-30T09:52:50.211Z,3.23
2019-01-30T09:55:19.856Z,3.25
2019-01-30T09:57:48.911Z,3.45
2019-01-30T10:00:27.333Z,3.45
2019-01-30T10:02:56.689Z,3.75
2019-01-30T10:05:25.717Z,3.83
2019-01-30T10:07:55.229Z,3.89
2019-01-30T10:10:27.407Z,3.75
2019-01-30T10:12:56.784Z,3.84
2019-01-30T10:15:28.282Z,3.91
2019-01-30T10:17:57.276Z,3.85
2019-01-30T10:20:27.050Z,4.12
2019-01-30T10:22:56.421Z,4.10
2019-01-30T10:25:25.429Z,3.99
2019-01-30T10:27:54.904Z,3.82
2019-01-30T10:30:29.200Z,3.72
2019-01-30T10:32:58.542Z,3.98
2019-01-30T10:35:27.839Z,4.21
2019-01-30T10:37:57.265Z,4.50
2019-01-30T10:40:26.999Z,4.61
2019-01-30T10:42:57.358Z,4.71
2019-01-30T10:45:27.594Z,4.71
2019-01-30T10:47:56.611Z,4.90
2019-01-30T10:50:27.051Z,4.86
2019-01-30T10:52:56.098Z,4.93
2019-01-30T10:55:26.778Z,5.02
2019-01-30T10:57:57.979Z,5.10
2019-01-30T11:00:32.894Z,5.20
2019-01-30T11:03:02.316Z,5.24
2019-01-30T11:05:31.340Z,5.16
2019-01-30T11:08:00.348Z,5.12
2019-01-30T11:10:29.407Z,5.52
2019-01-30T11:12:58.430Z,5.66
2019-01-30T11:15:28.377Z,6.02
2019-01-30T11:17:58.134Z,6.01
2019-01-30T11:20:27.270Z,6.21
2019-01-30T11:22:56.270Z,6.24
2019-01-30T11:25:30.486Z,6.44
2019-01-30T11:28:00.208Z,6.35
2019-01-30T11:30:29.338Z,6.97
2019-01-30T11:32:58.484Z,6.73
2019-01-30T11:35:27.485Z,6.75
2019-01-30T11:37:56.526Z,7.15
2019-01-30T11:40:27.253Z,7.50
2019-01-30T11:42:56.266Z,8.07
2019-01-30T11:45:34.108Z,8.53
2019-01-30T11:48:03.242Z,9.16
2019-01-30T11:50:32.311Z,9.14
2019-01-30T11:53:01.386Z,9.01
2019-01-30T11:55:30.848Z,9.46
2019-01-30T11:57:59.899Z,9.95
2019-01-30T12:00:33.600Z,10.00
2019-01-30T12:03:03.042Z,10.15
2019-01-30T12:05:32.126Z,10.77
2019-01-30T12:08:01.153Z,11.09
2019-01-30T12:10:30.684Z,11.21
2019-01-30T12:12:59.682Z,11.82
2019-01-30T12:15:28.737Z,11.91
2019-01-30T12:17:58.156Z,11.59
2019-01-30T12:20:27.174Z,11.59
2019-01-30T12:22:56.507Z,11.21
2019-01-30T12:25:25.914Z,10.83
2019-01-30T12:27:55.194Z,9.68
2019-01-30T12:30:26.235Z,10.11
2019-01-30T12:32:55.250Z,10.69
2019-01-30T12:35:24.374Z,10.57
2019-01-30T12:37:53.370Z,10.14
2019-01-30T12:40:22.408Z,9.67
2019-01-30T12:42:51.650Z,9.77
2019-01-30T12:45:26.640Z,9.82
2019-01-30T12:47:55.918Z,8.16
2019-01-30T12:50:25.057Z,8.16
2019-01-30T12:52:54.122Z,7.97
2019-01-30T12:55:23.340Z,8.06
2019-01-30T12:57:52.713Z,7.75
2019-01-30T13:00:23.965Z,8.21
2019-01-30T13:02:53.380Z,8.28
2019-01-30T13:05:24.414Z,8.66
2019-01-30T13:07:53.437Z,8.46
2019-01-30T13:10:22.452Z,8.18
2019-01-30T13:12:51.904Z,8.15
2019-01-30T13:15:22.423Z,8.09
2019-01-30T13:17:51.808Z,7.88
2019-01-30T13:20:21.760Z,7.88
2019-01-30T13:22:51.110Z,7.52
2019-01-30T13:25:22.714Z,7.68
2019-01-30T13:27:51.770Z,7.59
2019-01-30T13:30:23.470Z,7.68
2019-01-30T13:32:52.690Z,7.67
2019-01-30T13:35:21.875Z,7.69
2019-01-30T13:37:50.880Z,8.09
2019-01-30T13:40:22.624Z,8.08
2019-01-30T13:42:52.536Z,7.64
2019-01-30T13:45:21.546Z,7.68
2019-01-30T13:47:50.569Z,6.91
2019-01-30T13:50:21.511Z,7.51
2019-01-30T13:52:50.596Z,7.85
2019-01-30T13:55:20.032Z,7.96
2019-01-30T13:57:49.131Z,7.99
2019-01-30T14:00:26.830Z,7.96
2019-01-30T14:02:55.878Z,8.20
2019-01-30T14:05:24.928Z,8.28
2019-01-30T14:07:54.158Z,8.66
2019-01-30T14:10:23.409Z,9.18
2019-01-30T14:12:52.434Z,8.75
2019-01-30T14:15:22.500Z,8.75
2019-01-30T14:17:51.776Z,8.55
2019-01-30T14:20:21.235Z,8.94
2019-01-30T14:22:50.359Z,9.26
2019-01-30T14:25:19.703Z,9.63
2019-01-30T14:27:48.990Z,9.63
2019-01-30T14:30:26.233Z,9.60
2019-01-30T14:32:55.590Z,9.73
2019-01-30T14:35:26.231Z,9.87
2019-01-30T14:37:55.784Z,9.34
2019-01-30T14:40:25.373Z,9.93
2019-01-30T14:42:54.445Z,10.13
2019-01-30T14:45:23.542Z,10.74
2019-01-30T14:47:52.610Z,10.35
2019-01-30T14:50:23.395Z,10.04
2019-01-30T14:52:52.467Z,9.71
2019-01-30T14:55:23.129Z,9.40
2019-01-30T14:57:52.429Z,8.91
2019-01-30T15:00:26.887Z,8.84
2019-01-30T15:02:56.199Z,8.84
2019-01-30T15:05:25.728Z,7.87
2019-01-30T15:07:55.041Z,7.43
2019-01-30T15:10:24.358Z,7.37
2019-01-30T15:12:53.433Z,7.28
2019-01-30T15:15:24.442Z,7.80
2019-01-30T15:17:54.081Z,7.79
2019-01-30T15:20:25.065Z,7.28
2019-01-30T15:22:54.459Z,7.53
2019-01-30T15:25:25.086Z,7.00
2019-01-30T15:27:54.147Z,7.09
2019-01-30T15:30:37.514Z,6.75
2019-01-30T15:33:06.821Z,6.21
2019-01-30T15:35:36.120Z,6.03
2019-01-30T15:38:07.302Z,6.15
2019-01-30T15:40:36.599Z,5.83
2019-01-30T15:43:06.010Z,5.90
2019-01-30T15:45:35.484Z,5.90
2019-01-30T15:48:05.231Z,5.60
2019-01-30T15:50:35.490Z,5.16
2019-01-30T15:53:07.650Z,5.15
2019-01-30T15:55:36.667Z,4.93
2019-01-30T15:58:08.390Z,4.85
2019-01-30T16:00:55.830Z,4.57
2019-01-30T16:03:25.165Z,4.39
2019-01-30T16:05:55.177Z,4.32
2019-01-30T16:08:24.605Z,4.14
2019-01-30T16:10:53.959Z,4.15
2019-01-30T16:13:23.020Z,3.99
2019-01-30T16:15:57.766Z,3.83
2019-01-30T16:18:28.418Z,3.93
2019-01-30T16:20:57.401Z,3.99
2019-01-30T16:23:26.460Z,3.85
2019-01-30T16:25:55.857Z,3.80
2019-01-30T16:28:25.275Z,3.71
2019-01-30T16:30:54.541Z,3.46
2019-01-30T16:33:23.581Z,3.32
2019-01-30T16:35:56.139Z,3.26
2019-01-30T16:38:24.021Z,3.06
2019-01-30T16:40:53.018Z,2.91
2019-01-30T16:43:22.471Z,2.85
2019-01-30T16:45:52.742Z,2.76
2019-01-30T16:48:21.755Z,2.79
2019-01-30T16:50:51.776Z,2.76
2019-01-30T16:53:21.255Z,2.68
2019-01-30T16:55:50.632Z,2.55
2019-01-30T16:58:20.609Z,2.47
2019-01-30T17:00:50.234Z,2.49
2019-01-30T17:03:19.278Z,2.36
2019-01-30T17:05:48.634Z,2.34
2019-01-30T17:08:17.963Z,2.36
2019-01-30T17:10:47.122Z,2.25
2019-01-30T17:13:16.205Z,2.13
2019-01-30T17:15:45.231Z,2.02
2019-01-30T17:18:15.316Z,2.12
2019-01-30T17:20:44.699Z,1.99
2019-01-30T17:23:13.727Z,2.05
2019-01-30T17:25:44.739Z,2.13
2019-01-30T17:28:14.115Z,1.97
2019-01-30T17:30:46.387Z,2.17
2019-01-30T17:33:15.779Z,2.09
2019-01-30T17:35:45.232Z,2.19
2019-01-30T17:38:14.274Z,1.91
2019-01-30T17:40:44.122Z,2.15
2019-01-30T17:43:13.229Z,2.17
2019-01-30T17:45:42.267Z,2.00
2019-01-30T17:48:12.920Z,2.02
2019-01-30T17:50:42.380Z,1.94
2019-01-30T17:53:11.482Z,1.78
2019-01-30T17:55:40.884Z,1.57
2019-01-30T17:58:10.032Z,1.63
2019-01-30T18:00:46.747Z,1.47
2019-01-30T18:03:17.186Z,1.37
2019-01-30T18:05:46.562Z,1.29
2019-01-30T18:08:15.582Z,1.21
2019-01-30T18:10:44.972Z,1.14
2019-01-30T18:13:14.300Z,1.06
2019-01-30T18:15:43.676Z,1.01
2019-01-30T18:18:12.741Z,1.03
2019-01-30T18:20:41.757Z,1.07
2019-01-30T18:23:10.795Z,0.96
2019-01-30T18:25:40.215Z,0.93
2019-01-30T18:28:09.258Z,0.84
2019-01-30T18:30:38.371Z,0.93
2019-01-30T18:33:07.424Z,0.86
2019-01-30T18:35:36.449Z,0.73
2019-01-30T18:38:06.433Z,0.83
2019-01-30T18:40:35.474Z,1.04
2019-01-30T18:43:04.632Z,0.93
2019-01-30T18:45:33.669Z,0.85
2019-01-30T18:48:02.715Z,0.79
2019-01-30T18:50:32.040Z,0.69
2019-01-30T18:53:01.088Z,0.58
2019-01-30T18:55:31.065Z,0.55
2019-01-30T18:58:00.711Z,0.59
2019-01-30T19:00:32.087Z,0.57
2019-01-30T19:03:02.467Z,0.58
2019-01-30T19:05:32.331Z,0.66
2019-01-30T19:08:01.383Z,0.48
2019-01-30T19:10:30.387Z,0.61
2019-01-30T19:12:59.431Z,0.63
2019-01-30T19:15:29.130Z,0.67
2019-01-30T19:17:58.495Z,0.78
2019-01-30T19:20:38.345Z,0.64
2019-01-30T19:23:07.439Z,0.45
2019-01-30T19:25:36.639Z,0.48
2019-01-30T19:28:06.291Z,0.49
2019-01-30T19:30:35.430Z,0.47
2019-01-30T19:33:06.637Z,0.27
2019-01-30T19:35:35.663Z,0.35
2019-01-30T19:38:05.435Z,0.24
2019-01-30T19:40:34.727Z,0.27
2019-01-30T19:43:03.852Z,0.16
2019-01-30T19:45:33.174Z,0.07
2019-01-30T19:48:02.258Z,-0.01
2019-01-30T19:50:31.407Z,-0.10
2019-01-30T19:53:00.841Z,-0.15
2019-01-30T19:55:29.882Z,-0.29
2019-01-30T19:57:59.253Z,-0.41
2019-01-30T20:00:33.771Z,-0.30
2019-01-30T20:03:03.905Z,-0.33
2019-01-30T20:05:32.937Z,-0.40
2019-01-30T20:08:02.273Z,-0.50
2019-01-30T20:10:33.325Z,-0.49
2019-01-30T20:13:02.480Z,-0.43
2019-01-30T20:15:32.143Z,-0.47
2019-01-30T20:18:01.329Z,-0.41
2019-01-30T20:20:30.891Z,-0.49
2019-01-30T20:22:59.947Z,-0.56
2019-01-30T20:25:31.609Z,-0.93
2019-01-30T20:28:01.022Z,-1.28
2019-01-30T20:30:30.071Z,-1.51
2019-01-30T20:32:59.126Z,-1.68
2019-01-30T20:35:28.297Z,-1.64
2019-01-30T20:37:57.328Z,-1.72
2019-01-30T20:40:27.625Z,-1.69
2019-01-30T20:42:57.234Z,-1.73
2019-01-30T20:45:33.412Z,-1.73
2019-01-30T20:47:57.236Z,-1.67
2019-01-30T20:50:28.001Z,-1.41
2019-01-30T20:52:57.501Z,-1.31
2019-01-30T20:55:27.058Z,-1.18
2019-01-30T20:57:56.357Z,-1.45
2019-01-30T21:00:30.219Z,-1.56
2019-01-30T21:02:59.522Z,-1.65
2019-01-30T21:05:28.637Z,-1.80
2019-01-30T21:07:58.161Z,-1.84
2019-01-30T21:10:29.571Z,-1.86
2019-01-30T21:13:01.766Z,-1.99
2019-01-30T21:15:31.085Z,-2.18
2019-01-30T21:18:00.175Z,-2.35
2019-01-30T21:20:29.279Z,-2.40
2019-01-30T21:22:58.818Z,-2.29
2019-01-30T21:25:27.930Z,-2.35
2019-01-30T21:27:59.119Z,-2.33
2019-01-30T21:30:33.110Z,-2.50
2019-01-30T21:33:02.147Z,-2.46
2019-01-30T21:35:31.278Z,-2.57
2019-01-30T21:38:00.334Z,-2.53
2019-01-30T21:40:29.645Z,-2.43
2019-01-30T21:42:59.677Z,-2.31
2019-01-30T21:45:28.705Z,-2.27
2019-01-30T21:47:57.745Z,-2.34
2019-01-30T21:50:27.133Z,-2.32
2019-01-30T21:52:56.200Z,-2.36
2019-01-30T21:55:25.583Z,-2.37
2019-01-30T21:57:54.605Z,-2.44
2019-01-30T22:00:25.283Z,-2.50
2019-01-30T22:02:54.629Z,-2.49
2019-01-30T22:05:23.808Z,-2.45
2019-01-30T22:08:00.682Z,-2.38
2019-01-30T22:10:25.851Z,-2.43
2019-01-30T22:12:54.939Z,-2.61
2019-01-30T22:15:24.520Z,-2.60
2019-01-30T22:17:57.300Z,-2.68
2019-01-30T22:20:27.085Z,-2.67
2019-01-30T22:22:56.444Z,-2.70
2019-01-30T22:25:26.149Z,-2.71
2019-01-30T22:27:55.833Z,-2.82
2019-01-30T22:30:26.687Z,-2.83
2019-01-30T22:32:55.673Z,-2.86
2019-01-30T22:35:24.697Z,-2.77
2019-01-30T22:37:53.829Z,-2.71
2019-01-30T22:40:22.895Z,-2.65
2019-01-30T22:42:51.913Z,-2.64
2019-01-30T22:45:21.028Z,-2.80
2019-01-30T22:47:50.328Z,-2.96
2019-01-30T22:50:20.522Z,-2.93
2019-01-30T22:52:49.971Z,-2.86
2019-01-30T22:55:20.555Z,-2.83
2019-01-30T22:57:50.968Z,-2.91
2019-01-30T23:00:58.540Z,-2.87
2019-01-30T23:03:58.765Z,-2.90
2019-01-30T23:06:56.497Z,-2.76
2019-01-30T23:09:49.253Z,-2.75
2019-01-30T23:13:02.828Z,-2.87
2019-01-30T23:16:00.344Z,-2.57
2019-01-30T23:18:51.080Z,-2.34
2019-01-30T23:21:25.209Z,-2.26
2019-01-30T23:24:29.924Z,-2.35
2019-01-30T23:27:19.445Z,-2.48
2019-01-30T23:30:13.529Z,-2.45
2019-01-30T23:33:25.350Z,-2.31
2019-01-30T23:36:35.757Z,-2.27
2019-01-30T23:39:37.073Z,-2.18
2019-01-30T23:42:43.966Z,-2.21
2019-01-30T23:45:29.668Z,-2.02
2019-01-30T23:48:44.962Z,-1.98
2019-01-30T23:51:27.456Z,-2.00
2019-01-30T23:54:43.840Z,-2.04
2019-01-30T23:57:28.928Z,-2.04
